createdAt,value
2019-06-25T00:00:13.370Z,98018.59
2019-06-25T00:02:41.847Z,98010.35
2019-06-25T00:05:10.500Z,98014.25
2019-06-25T00:07:38.930Z,98013.59
2019-06-25T00:10:07.773Z,98012.30
2019-06-25T00:12:36.175Z,98010.09
2019-06-25T00:15:05.832Z,98010.29
2019-06-25T00:17:34.276Z,98012.09
2019-06-25T00:20:02.985Z,98012.16
2019-06-25T00:22:31.328Z,98016.98
2019-06-25T00:24:59.924Z,98016.57
2019-06-25T00:27:28.613Z,98013.97
2019-06-25T00:29:56.903Z,98016.48
2019-06-25T00:32:25.217Z,98011.28
2019-06-25T00:34:53.600Z,98014.52
2019-06-25T00:37:22.009Z,98017.09
2019-06-25T00:39:50.478Z,98010.59
2019-06-25T00:42:18.877Z,98010.55
2019-06-25T00:44:47.183Z,98009.75
2019-06-25T00:47:15.531Z,98011.83
2019-06-25T00:49:43.938Z,98007.05
2019-06-25T00:52:12.363Z,98004.98
2019-06-25T00:54:41.123Z,98003.22
2019-06-25T00:57:09.484Z,97999.84
2019-06-25T00:59:37.943Z,97997.26
2019-06-25T01:02:07.949Z,97988.73
2019-06-25T01:04:36.345Z,97991.47
2019-06-25T01:07:04.715Z,97993.64
2019-06-25T01:09:33.047Z,97990.05
2019-06-25T01:12:01.339Z,98001.41
2019-06-25T01:14:29.768Z,98007.88
2019-06-25T01:16:58.240Z,98000.73
2019-06-25T01:19:26.648Z,97997.89
2019-06-25T01:21:55.046Z,97993.57
2019-06-25T01:24:23.383Z,97986.17
2019-06-25T01:26:51.669Z,97993.69
2019-06-25T01:29:20.151Z,97993.65
2019-06-25T01:31:48.626Z,97987.25
2019-06-25T01:34:17.032Z,97982.20
2019-06-25T01:36:45.342Z,97981.14
2019-06-25T01:39:13.645Z,97972.56
2019-06-25T01:41:42.098Z,97973.41
2019-06-25T01:44:12.127Z,97978.25
2019-06-25T01:46:40.441Z,97966.64
2019-06-25T01:49:08.826Z,97967.25
2019-06-25T01:51:37.279Z,97966.80
2019-06-25T01:54:05.740Z,97963.27
2019-06-25T01:56:34.112Z,97962.80
2019-06-25T01:59:02.428Z,97957.86
2019-06-25T02:01:30.727Z,97959.77
2019-06-25T02:03:59.016Z,97955.78
2019-06-25T02:06:27.333Z,97957.03
2019-06-25T02:08:55.703Z,97957.38
2019-06-25T02:11:24.054Z,97959.98
2019-06-25T02:13:52.354Z,97964.80
2019-06-25T02:16:20.761Z,97955.91
2019-06-25T02:18:49.151Z,97957.42
2019-06-25T02:21:17.549Z,97957.42
2019-06-25T02:23:45.848Z,97957.70
2019-06-25T02:26:14.251Z,97963.75
2019-06-25T02:28:42.630Z,97961.07
2019-06-25T02:31:11.039Z,97973.32
2019-06-25T02:33:39.408Z,97970.09
2019-06-25T02:36:07.728Z,97975.83
2019-06-25T02:38:36.095Z,97980.05
2019-06-25T02:41:04.667Z,97979.81
2019-06-25T02:43:33.022Z,97976.75
2019-06-25T02:46:01.538Z,97981.73
2019-06-25T02:48:29.830Z,97979.92
2019-06-25T02:50:58.164Z,97972.03
2019-06-25T02:53:26.454Z,97961.47
2019-06-25T02:55:54.783Z,97965.24
2019-06-25T02:58:23.137Z,97961.72
2019-06-25T03:00:51.468Z,97969.19
2019-06-25T03:03:19.866Z,97962.81
2019-06-25T03:05:48.239Z,97958.14
2019-06-25T03:08:16.652Z,97957.35
2019-06-25T03:10:44.964Z,97957.05
2019-06-25T03:13:13.299Z,97952.73
2019-06-25T03:15:41.589Z,97953.29
2019-06-25T03:18:10.207Z,97958.22
2019-06-25T03:20:38.579Z,97955.50
2019-06-25T03:23:07.022Z,97955.61
2019-06-25T03:25:35.391Z,97959.70
2019-06-25T03:28:03.723Z,97962.89
2019-06-25T03:30:32.129Z,97954.73
2019-06-25T03:33:00.492Z,97957.55
2019-06-25T03:35:28.903Z,97961.97
2019-06-25T03:37:57.287Z,97960.38
2019-06-25T03:40:25.594Z,97969.45
2019-06-25T03:42:53.974Z,97954.88
2019-06-25T03:45:22.536Z,97959.66
2019-06-25T03:47:51.768Z,97960.22
2019-06-25T03:50:20.123Z,97956.47
2019-06-25T03:52:48.997Z,97959.13
2019-06-25T03:55:17.322Z,97959.30
2019-06-25T03:57:45.704Z,97953.91
2019-06-25T04:00:14.386Z,97959.47
2019-06-25T04:02:42.718Z,97962.28
2019-06-25T04:05:11.552Z,97965.01
2019-06-25T04:07:40.013Z,97965.73
2019-06-25T04:10:08.894Z,97975.36
2019-06-25T04:12:37.227Z,97967.42
2019-06-25T04:15:06.769Z,97976.81
2019-06-25T04:17:35.161Z,97979.20
2019-06-25T04:20:05.800Z,97975.11
2019-06-25T04:22:34.109Z,97982.84
2019-06-25T04:25:02.569Z,97983.74
2019-06-25T04:27:31.025Z,97981.80
2019-06-25T04:29:59.404Z,97979.41
2019-06-25T04:32:33.506Z,97975.20
2019-06-25T04:34:58.026Z,97972.08
2019-06-25T04:37:26.328Z,97973.32
2019-06-25T04:39:54.672Z,97979.44
2019-06-25T04:42:22.970Z,97979.28
2019-06-25T04:44:51.298Z,97984.39
2019-06-25T04:47:19.670Z,97978.39
2019-06-25T04:49:48.050Z,97983.37
2019-06-25T04:52:16.455Z,97985.88
2019-06-25T04:54:44.775Z,97988.14
2019-06-25T04:57:13.076Z,97993.00
2019-06-25T04:59:41.490Z,98001.28
2019-06-25T05:02:09.890Z,97994.57
2019-06-25T05:04:38.301Z,97991.99
2019-06-25T05:07:06.615Z,98000.83
2019-06-25T05:09:34.933Z,98006.33
2019-06-25T05:12:03.348Z,98007.40
2019-06-25T05:14:31.795Z,98012.13
2019-06-25T05:17:00.761Z,98010.16
2019-06-25T05:19:29.089Z,98012.74
2019-06-25T05:21:57.507Z,98014.13
2019-06-25T05:24:25.808Z,98020.34
2019-06-25T05:26:54.122Z,98019.42
2019-06-25T05:29:22.495Z,98011.28
2019-06-25T05:31:50.936Z,98012.59
2019-06-25T05:34:19.346Z,98018.66
2019-06-25T05:36:49.348Z,98009.34
2019-06-25T05:39:17.661Z,98019.50
2019-06-25T05:41:46.086Z,98023.70
2019-06-25T05:44:14.475Z,98024.27
2019-06-25T05:46:42.867Z,98019.15
2019-06-25T05:49:11.251Z,98019.42
2019-06-25T05:51:39.577Z,98020.22
2019-06-25T05:54:08.039Z,98026.00
2019-06-25T05:56:36.445Z,98028.03
2019-06-25T05:59:04.985Z,98031.92
2019-06-25T06:01:33.593Z,98035.37
2019-06-25T06:04:02.027Z,98032.80
2019-06-25T06:06:30.528Z,98035.17
2019-06-25T06:08:58.828Z,98043.39
2019-06-25T06:11:27.238Z,98042.14
2019-06-25T06:13:55.592Z,98049.70
2019-06-25T06:16:24.088Z,98057.05
2019-06-25T06:18:52.538Z,98056.81
2019-06-25T06:21:21.236Z,98062.48
2019-06-25T06:23:49.690Z,98059.64
2019-06-25T06:26:19.055Z,98063.78
2019-06-25T06:28:47.657Z,98065.58
2019-06-25T06:31:17.990Z,98060.77
2019-06-25T06:33:46.094Z,98066.92
2019-06-25T06:36:14.390Z,98064.77
2019-06-25T06:38:42.882Z,98054.00
2019-06-25T06:41:11.870Z,98056.67
2019-06-25T06:43:40.348Z,98056.09
2019-06-25T06:46:08.791Z,98060.62
2019-06-25T06:48:37.185Z,98062.36
2019-06-25T06:51:05.575Z,98062.88
2019-06-25T06:53:33.948Z,98068.25
2019-06-25T06:56:02.664Z,98063.91
2019-06-25T06:58:31.415Z,98072.22
2019-06-25T07:00:59.973Z,98077.48
2019-06-25T07:03:28.730Z,98075.52
2019-06-25T07:05:57.156Z,98076.23
2019-06-25T07:08:25.572Z,98072.31
2019-06-25T07:10:53.967Z,98074.39
2019-06-25T07:13:22.410Z,98077.31
2019-06-25T07:15:50.815Z,98074.14
2019-06-25T07:18:19.284Z,98078.91
2019-06-25T07:20:47.746Z,98078.27
2019-06-25T07:23:16.332Z,98085.53
2019-06-25T07:25:45.514Z,98081.23
2019-06-25T07:28:14.242Z,98081.78
2019-06-25T07:30:43.414Z,98081.27
2019-06-25T07:33:11.798Z,98074.22
2019-06-25T07:35:40.219Z,98081.52
2019-06-25T07:38:08.664Z,98085.25
2019-06-25T07:40:37.033Z,98086.14
2019-06-25T07:43:05.575Z,98079.58
2019-06-25T07:45:33.967Z,98086.58
2019-06-25T07:48:02.354Z,98089.20
2019-06-25T07:50:30.738Z,98084.96
2019-06-25T07:52:59.202Z,98094.64
2019-06-25T07:55:27.643Z,98090.70
2019-06-25T07:57:55.985Z,98090.54
2019-06-25T08:00:24.394Z,98092.88
2019-06-25T08:02:52.698Z,98096.61
2019-06-25T08:05:21.173Z,98092.88
2019-06-25T08:07:49.836Z,98092.69
2019-06-25T08:10:18.429Z,98085.97
2019-06-25T08:12:46.737Z,98088.00
2019-06-25T08:15:16.960Z,98088.80
2019-06-25T08:17:45.251Z,98089.00
2019-06-25T08:20:14.229Z,98087.44
2019-06-25T08:22:42.683Z,98085.91
2019-06-25T08:25:11.207Z,98084.37
2019-06-25T08:27:39.710Z,98090.35
2019-06-25T08:30:10.960Z,98094.88
2019-06-25T08:32:39.284Z,98094.67
2019-06-25T08:35:08.349Z,98093.91
2019-06-25T08:37:36.760Z,97986.09
2019-06-25T08:40:19.063Z,98097.30
2019-06-25T08:42:38.583Z,98091.75
2019-06-25T08:45:08.926Z,98099.25
2019-06-25T08:47:37.586Z,98100.86
2019-06-25T08:50:07.103Z,98097.34
2019-06-25T08:52:35.722Z,98095.75
2019-06-25T08:55:04.811Z,98090.20
2019-06-25T08:57:33.426Z,98096.93
2019-06-25T09:00:01.886Z,98092.41
2019-06-25T09:02:30.299Z,98097.53
2019-06-25T09:05:03.208Z,98097.71
2019-06-25T09:07:28.729Z,98094.35
2019-06-25T09:09:57.303Z,98096.11
2019-06-25T09:12:25.680Z,98102.80
2019-06-25T09:14:54.053Z,98098.28
2019-06-25T09:17:22.449Z,98102.42
2019-06-25T09:19:50.948Z,98098.42
2019-06-25T09:22:19.389Z,98105.69
2019-06-25T09:24:47.743Z,98099.20
2019-06-25T09:27:16.074Z,98100.79
2019-06-25T09:29:45.280Z,98100.34
2019-06-25T09:32:13.775Z,98103.49
2019-06-25T09:34:42.127Z,98102.85
2019-06-25T09:37:10.507Z,98101.80
2019-06-25T09:39:41.361Z,98114.56
2019-06-25T09:42:08.921Z,98113.31
2019-06-25T09:44:36.183Z,98111.42
2019-06-25T09:47:05.064Z,98112.38
2019-06-25T09:49:35.425Z,98114.67
2019-06-25T09:52:05.575Z,98114.23
2019-06-25T09:54:33.973Z,98117.83
2019-06-25T09:57:02.524Z,98116.63
2019-06-25T09:59:31.111Z,98122.09
2019-06-25T10:01:59.491Z,98115.38
2019-06-25T10:04:27.888Z,98122.76
2019-06-25T10:06:56.338Z,98120.25
2019-06-25T10:09:24.654Z,98115.77
2019-06-25T10:11:53.022Z,98119.82
2019-06-25T10:14:21.407Z,98120.70
2019-06-25T10:16:49.863Z,98125.20
2019-06-25T10:19:18.354Z,98123.11
2019-06-25T10:21:46.729Z,98131.79
2019-06-25T10:24:15.058Z,98128.73
2019-06-25T10:26:43.423Z,98130.27
2019-06-25T10:29:11.832Z,98125.37
2019-06-25T10:31:40.217Z,98129.33
2019-06-25T10:34:08.700Z,98132.28
2019-06-25T10:36:36.996Z,98131.41
2019-06-25T10:39:07.166Z,98130.64
2019-06-25T10:41:35.486Z,98128.19
2019-06-25T10:44:04.364Z,98131.09
2019-06-25T10:46:32.736Z,98130.58
2019-06-25T10:49:01.148Z,98129.59
2019-06-25T10:51:29.718Z,98130.03
2019-06-25T10:53:58.051Z,98129.36
2019-06-25T10:56:30.816Z,98123.98
2019-06-25T10:58:56.502Z,98125.30
2019-06-25T11:01:24.913Z,98134.02
2019-06-25T11:03:53.225Z,98132.95
2019-06-25T11:06:21.603Z,98135.51
2019-06-25T11:08:49.974Z,98136.48
2019-06-25T11:11:18.430Z,98136.38
2019-06-25T11:13:46.791Z,98139.88
2019-06-25T11:16:15.122Z,98140.47
2019-06-25T11:18:43.480Z,98140.77
2019-06-25T11:21:11.868Z,98138.05
2019-06-25T11:23:40.236Z,98145.73
2019-06-25T11:26:22.091Z,98147.55
2019-06-25T11:28:38.642Z,98145.43
2019-06-25T11:31:07.055Z,98142.20
2019-06-25T11:33:35.525Z,98137.95
2019-06-25T11:36:19.713Z,98144.84
2019-06-25T11:38:33.998Z,98140.31
2019-06-25T11:41:02.347Z,98147.25
2019-06-25T11:43:43.714Z,98146.16
2019-06-25T11:46:00.853Z,98146.89
2019-06-25T11:48:29.155Z,98145.98
2019-06-25T11:50:57.565Z,98144.78
2019-06-25T11:53:26.014Z,98145.00
2019-06-25T11:55:54.344Z,98144.78
2019-06-25T11:58:22.640Z,98141.27
2019-06-25T12:00:51.018Z,98144.53
2019-06-25T12:03:19.398Z,98142.95
2019-06-25T12:05:47.778Z,98147.61
2019-06-25T12:08:16.428Z,98143.81
2019-06-25T12:10:44.958Z,98139.06
2019-06-25T12:13:13.328Z,98142.41
2019-06-25T12:15:41.645Z,98139.44
2019-06-25T12:18:10.043Z,98135.20
2019-06-25T12:20:38.452Z,98139.67
2019-06-25T12:23:06.880Z,98140.84
2019-06-25T12:25:35.293Z,98138.38
2019-06-25T12:28:03.638Z,98141.70
2019-06-25T12:30:31.934Z,98132.46
2019-06-25T12:33:00.358Z,98129.88
2019-06-25T12:35:28.725Z,98132.56
2019-06-25T12:37:57.210Z,98128.89
2019-06-25T12:40:25.495Z,98129.62
2019-06-25T12:42:53.861Z,98125.58
2019-06-25T12:45:22.320Z,98120.80
2019-06-25T12:47:50.918Z,98130.53
2019-06-25T12:50:20.374Z,98120.55
2019-06-25T12:52:48.861Z,98120.64
2019-06-25T12:55:17.209Z,98112.42
2019-06-25T12:57:45.545Z,98113.04
2019-06-25T13:00:14.553Z,98117.81
2019-06-25T13:02:43.111Z,98114.73
2019-06-25T13:05:11.978Z,98118.03
2019-06-25T13:07:40.275Z,98120.70
2019-06-25T13:10:09.457Z,98116.05
2019-06-25T13:12:37.875Z,98115.67
2019-06-25T13:15:07.944Z,98113.53
2019-06-25T13:17:36.273Z,98112.45
2019-06-25T13:20:06.013Z,98114.39
2019-06-25T13:22:34.492Z,98111.63
2019-06-25T13:25:02.871Z,98121.56
2019-06-25T13:27:31.204Z,98118.58
2019-06-25T13:29:59.566Z,98121.21
2019-06-25T13:32:27.967Z,98122.73
2019-06-25T13:34:56.496Z,98123.41
2019-06-25T13:37:38.176Z,98117.45
2019-06-25T13:39:55.570Z,98114.47
2019-06-25T13:42:23.854Z,98118.78
2019-06-25T13:44:52.213Z,98113.69
2019-06-25T13:47:20.517Z,98110.04
2019-06-25T13:49:48.835Z,98115.88
2019-06-25T13:52:17.150Z,98109.41
2019-06-25T13:54:45.455Z,98109.05
2019-06-25T13:57:13.751Z,98109.42
2019-06-25T13:59:42.120Z,98107.92
2019-06-25T14:02:10.495Z,98106.13
2019-06-25T14:04:38.824Z,98110.16
2019-06-25T14:07:07.225Z,98106.31
2019-06-25T14:09:35.692Z,98098.44
2019-06-25T14:12:04.061Z,98101.02
2019-06-25T14:14:32.451Z,98101.06
2019-06-25T14:17:00.840Z,98104.98
2019-06-25T14:19:29.343Z,98113.63
2019-06-25T14:21:57.636Z,98109.02
2019-06-25T14:24:25.966Z,98105.98
2019-06-25T14:26:54.598Z,98103.42
2019-06-25T14:29:22.976Z,98098.98
2019-06-25T14:31:51.416Z,98101.17
2019-06-25T14:34:19.844Z,98097.76
2019-06-25T14:36:48.272Z,98102.52
2019-06-25T14:39:16.673Z,98095.20
2019-06-25T14:41:44.967Z,98095.20
2019-06-25T14:44:13.947Z,98100.22
2019-06-25T14:46:43.463Z,98100.28
2019-06-25T14:49:12.090Z,98106.56
2019-06-25T14:51:40.781Z,98107.16
2019-06-25T14:54:09.281Z,98107.84
2019-06-25T14:56:37.637Z,98103.09
2019-06-25T14:59:05.923Z,98107.42
2019-06-25T15:01:34.326Z,98103.36
2019-06-25T15:04:03.536Z,98102.02
2019-06-25T15:06:32.000Z,98094.26
2019-06-25T15:09:00.296Z,98101.84
2019-06-25T15:11:28.778Z,98094.90
2019-06-25T15:13:57.058Z,98094.46
2019-06-25T15:16:25.386Z,98100.63
2019-06-25T15:18:53.692Z,98092.86
2019-06-25T15:21:24.705Z,98097.22
2019-06-25T15:23:52.118Z,98097.92
2019-06-25T15:26:20.592Z,98099.14
2019-06-25T15:28:49.390Z,98096.03
2019-06-25T15:31:18.013Z,98097.42
2019-06-25T15:33:46.281Z,98098.56
2019-06-25T15:36:14.606Z,98090.81
2019-06-25T15:38:47.158Z,98092.56
2019-06-25T15:41:13.157Z,98061.53
2019-06-25T15:43:41.460Z,98091.08
2019-06-25T15:46:09.844Z,98086.88
2019-06-25T15:48:38.230Z,98085.42
2019-06-25T15:51:06.655Z,98079.80
2019-06-25T15:53:34.896Z,98079.80
2019-06-25T15:56:03.303Z,98074.22
2019-06-25T15:58:31.580Z,98076.66
2019-06-25T16:00:59.925Z,98076.31
2019-06-25T16:03:28.246Z,98075.38
2019-06-25T16:05:56.646Z,98068.41
2019-06-25T16:08:25.086Z,98073.20
2019-06-25T16:10:53.385Z,98069.44
2019-06-25T16:13:21.810Z,98067.88
2019-06-25T16:15:50.118Z,98068.73
2019-06-25T16:18:18.416Z,98064.37
2019-06-25T16:20:46.789Z,98062.38
2019-06-25T16:23:15.132Z,98064.81
2019-06-25T16:25:43.645Z,98070.91
2019-06-25T16:28:12.001Z,98069.01
2019-06-25T16:30:40.294Z,98063.42
2019-06-25T16:33:08.729Z,98067.50
2019-06-25T16:35:37.257Z,98073.87
2019-06-25T16:38:05.664Z,98071.08
2019-06-25T16:40:34.064Z,98069.69
2019-06-25T16:43:02.400Z,98068.29
2019-06-25T16:45:30.695Z,98075.88
2019-06-25T16:47:59.023Z,98070.05
2019-06-25T16:50:27.415Z,98060.70
2019-06-25T16:52:55.781Z,98070.20
2019-06-25T16:55:24.231Z,98066.72
2019-06-25T16:57:52.640Z,98074.90
2019-06-25T17:00:21.076Z,98070.16
2019-06-25T17:02:54.290Z,98072.59
2019-06-25T17:05:31.214Z,98068.11
2019-06-25T17:07:49.784Z,98067.55
2019-06-25T17:10:19.373Z,98065.62
2019-06-25T17:12:47.856Z,98067.41
2019-06-25T17:15:16.203Z,98061.40
2019-06-25T17:17:44.577Z,98060.33
2019-06-25T17:20:13.861Z,98069.01
2019-06-25T17:22:42.219Z,98075.28
2019-06-25T17:25:10.733Z,98070.39
2019-06-25T17:27:49.177Z,98076.56
2019-06-25T17:30:09.368Z,98072.84
2019-06-25T17:32:38.012Z,98073.52
2019-06-25T17:35:09.510Z,98072.05
2019-06-25T17:37:37.808Z,98077.44
2019-06-25T17:40:07.778Z,98073.93
2019-06-25T17:42:36.118Z,98076.36
2019-06-25T17:45:07.048Z,98074.00
2019-06-25T17:47:35.407Z,98080.59
2019-06-25T17:50:05.808Z,98072.67
2019-06-25T17:52:34.159Z,98076.70
2019-06-25T17:55:02.608Z,98076.94
2019-06-25T17:57:32.457Z,98080.63
2019-06-25T18:00:00.805Z,98081.91
2019-06-25T18:02:29.105Z,98084.78
2019-06-25T18:04:57.580Z,98084.42
2019-06-25T18:07:25.981Z,98079.70
2019-06-25T18:10:07.085Z,98081.33
2019-06-25T18:12:26.152Z,98079.16
2019-06-25T18:14:54.575Z,98078.22
2019-06-25T18:17:24.936Z,98075.06
2019-06-25T18:19:53.402Z,98081.98
2019-06-25T18:22:21.763Z,98084.89
2019-06-25T18:24:50.194Z,98080.98
2019-06-25T18:27:18.636Z,98085.16
2019-06-25T18:29:47.058Z,98083.77
2019-06-25T18:32:15.589Z,98081.22
2019-06-25T18:34:43.985Z,98081.52
2019-06-25T18:37:12.499Z,98082.17
2019-06-25T18:39:40.909Z,98083.62
2019-06-25T18:42:11.917Z,98086.66
2019-06-25T18:44:42.836Z,98087.87
2019-06-25T18:47:11.249Z,98084.02
2019-06-25T18:49:39.631Z,98085.77
2019-06-25T18:52:08.274Z,98084.29
2019-06-25T18:54:36.647Z,98083.03
2019-06-25T18:57:05.123Z,98089.24
2019-06-25T18:59:37.493Z,98084.33
2019-06-25T19:02:07.382Z,98090.91
2019-06-25T19:04:35.888Z,98082.69
2019-06-25T19:07:04.424Z,98085.93
2019-06-25T19:09:32.888Z,98092.73
2019-06-25T19:12:01.405Z,98093.61
2019-06-25T19:14:32.223Z,98085.50
2019-06-25T19:17:00.049Z,98085.77
2019-06-25T19:19:28.425Z,98089.38
2019-06-25T19:21:56.897Z,98091.26
2019-06-25T19:24:25.399Z,98086.38
2019-06-25T19:26:53.717Z,98093.84
2019-06-25T19:29:22.051Z,98095.50
2019-06-25T19:31:50.404Z,98096.02
2019-06-25T19:34:18.761Z,98100.22
2019-06-25T19:36:47.206Z,98100.66
2019-06-25T19:39:17.147Z,98102.52
2019-06-25T19:41:45.675Z,98105.55
2019-06-25T19:44:14.157Z,98107.98
2019-06-25T19:46:42.604Z,98103.31
2019-06-25T19:49:11.071Z,98114.84
2019-06-25T19:51:39.623Z,98117.87
2019-06-25T19:54:08.053Z,98120.91
2019-06-25T19:56:36.406Z,98131.49
2019-06-25T19:59:04.858Z,98131.38
2019-06-25T20:01:33.228Z,98136.36
2019-06-25T20:04:01.655Z,98129.15
2019-06-25T20:06:30.040Z,98131.20
2019-06-25T20:08:58.450Z,98138.56
2019-06-25T20:11:26.855Z,98142.61
2019-06-25T20:13:55.210Z,98144.13
2019-06-25T20:16:23.627Z,98148.40
2019-06-25T20:18:52.019Z,98145.33
2019-06-25T20:21:20.433Z,98146.64
2019-06-25T20:23:48.793Z,98147.48
2019-06-25T20:26:17.318Z,98147.13
2019-06-25T20:28:45.647Z,98146.95
2019-06-25T20:31:13.969Z,98144.65
2019-06-25T20:33:42.431Z,98147.47
2019-06-25T20:36:10.935Z,98148.62
2019-06-25T20:38:39.463Z,98147.36
2019-06-25T20:41:07.857Z,98149.25
2019-06-25T20:43:36.190Z,98141.96
2019-06-25T20:46:05.364Z,98147.31
2019-06-25T20:48:33.770Z,98150.64
2019-06-25T20:51:02.186Z,98158.73
2019-06-25T20:53:32.645Z,98156.94
2019-06-25T20:56:00.684Z,98158.53
2019-06-25T20:58:29.014Z,98154.81
2019-06-25T21:00:57.415Z,98154.98
2019-06-25T21:03:25.784Z,98164.83
2019-06-25T21:05:54.696Z,98166.36
2019-06-25T21:08:23.024Z,98170.09
2019-06-25T21:10:51.718Z,98167.34
2019-06-25T21:13:20.033Z,98172.92
2019-06-25T21:15:48.441Z,98172.71
2019-06-25T21:18:16.736Z,98176.37
2019-06-25T21:20:45.245Z,98179.91
2019-06-25T21:23:13.544Z,98184.89
2019-06-25T21:25:42.151Z,98189.22
2019-06-25T21:28:10.548Z,98183.72
2019-06-25T21:30:39.332Z,98182.66
2019-06-25T21:33:07.714Z,98182.06
2019-06-25T21:35:36.061Z,98186.51
2019-06-25T21:38:04.501Z,98191.06
2019-06-25T21:40:32.893Z,98185.13
2019-06-25T21:43:01.325Z,98190.58
2019-06-25T21:45:29.734Z,98194.13
2019-06-25T21:47:58.039Z,98196.93
2019-06-25T21:50:26.456Z,98194.55
2019-06-25T21:52:54.754Z,98197.46
2019-06-25T21:55:23.377Z,98197.83
2019-06-25T21:57:51.680Z,98198.99
2019-06-25T22:00:21.796Z,98194.70
2019-06-25T22:02:56.992Z,98196.88
2019-06-25T22:05:25.391Z,98199.20
2019-06-25T22:07:53.700Z,98145.25
2019-06-25T22:10:22.655Z,98206.10
2019-06-25T22:12:51.048Z,98206.95
2019-06-25T22:15:19.420Z,98210.92
2019-06-25T22:17:47.845Z,98206.88
2019-06-25T22:20:17.791Z,98215.72
2019-06-25T22:22:46.162Z,98216.87
2019-06-25T22:25:15.133Z,98213.91
2019-06-25T22:27:43.540Z,98215.93
2019-06-25T22:30:12.367Z,98216.45
2019-06-25T22:32:40.782Z,98216.16
2019-06-25T22:35:09.331Z,98220.81
2019-06-25T22:37:37.722Z,98221.23
2019-06-25T22:40:09.366Z,98222.61
2019-06-25T22:42:38.077Z,98220.08
2019-06-25T22:45:07.092Z,98222.03
2019-06-25T22:47:35.475Z,98222.61
2019-06-25T22:50:05.418Z,98219.43
2019-06-25T22:52:34.187Z,98225.89
2019-06-25T22:55:02.559Z,98230.59
2019-06-25T22:57:31.053Z,98232.70
2019-06-25T22:59:59.363Z,98229.31
2019-06-25T23:02:27.693Z,98241.94
2019-06-25T23:04:56.013Z,98241.08
2019-06-25T23:07:24.435Z,98234.63
2019-06-25T23:09:52.754Z,98237.14
2019-06-25T23:12:21.528Z,98242.97
2019-06-25T23:14:49.819Z,98247.80
2019-06-25T23:17:18.901Z,98239.97
2019-06-25T23:19:47.240Z,98245.26
2019-06-25T23:22:15.635Z,98241.44
2019-06-25T23:24:43.951Z,98245.72
2019-06-25T23:27:12.333Z,98246.52
2019-06-25T23:29:40.752Z,98239.98
2019-06-25T23:32:09.055Z,98241.75
2019-06-25T23:34:37.499Z,98247.65
2019-06-25T23:37:06.055Z,98247.13
2019-06-25T23:39:34.440Z,98244.16
2019-06-25T23:42:02.789Z,98246.33
2019-06-25T23:44:31.212Z,98246.06
2019-06-25T23:46:59.596Z,98242.88
2019-06-25T23:49:28.036Z,98246.58
2019-06-25T23:51:56.599Z,98250.03
2019-06-25T23:54:24.975Z,98253.57
2019-06-25T23:56:53.236Z,98247.21
2019-06-25T23:59:21.910Z,98249.22
